Time;durP1;ratioP1;P1;durP2;ratioP2;P2;SDS_P1;SDS_P2;PMS_P1;PMS_P2;Temp;Humidity;BMP_temperature;BMP_pressure;BME280_temperature;BME280_humidity;BME280_pressure;Samples;Min_cycle;Max_cycle;Signal;HPM_P1;HPM_P2
2023/01/23 00:04:38;;;;;;;36.30;22.47;;;2.70;99.90;;;;;;4973109;28;20483;-85
2023/01/23 00:10:15;;;;;;;34.40;21.60;;;2.60;99.90;;;;;;4976205;29;20498;-85
2023/01/23 00:12:53;;;;;;;39.20;23.53;;;2.70;99.90;;;;;;4976705;29;20483;-84
2023/01/23 00:15:38;;;;;;;32.40;22.03;;;2.60;99.90;;;;;;4977921;29;20484;-84
2023/01/23 00:18:23;;;;;;;40.90;23.30;;;2.70;99.90;;;;;;4978541;28;20455;-85
2023/01/23 00:20:55;;;;;;;38.97;23.87;;;2.80;99.90;;;;;;4978763;28;21036;-84
2023/01/23 00:23:35;;;;;;;33.37;21.90;;;2.80;99.90;;;;;;4978282;28;20443;-85
2023/01/23 00:29:04;;;;;;;38.93;24.53;;;2.90;99.90;;;;;;4977752;28;20452;-84
2023/01/23 00:32:04;;;;;;;41.80;24.33;;;2.90;99.90;;;;;;4978164;28;20532;-84
2023/01/23 00:34:39;;;;;;;40.47;25.47;;;2.80;99.90;;;;;;4977545;29;20488;-84
2023/01/23 00:37:18;;;;;;;44.00;29.73;;;2.80;99.90;;;;;;4976450;28;20451;-84
2023/01/23 00:39:54;;;;;;;41.53;24.87;;;2.90;99.90;;;;;;4977722;28;20213;-84
2023/01/23 00:42:43;;;;;;;41.37;24.63;;;2.80;99.90;;;;;;4976768;29;20467;-85
2023/01/23 00:45:41;;;;;;;39.53;23.93;;;2.70;99.90;;;;;;4978023;29;20456;-85
2023/01/23 00:48:41;;;;;;;36.10;23.03;;;2.70;99.90;;;;;;4977434;29;20420;-85
2023/01/23 00:51:55;;;;;;;44.87;24.13;;;2.70;99.90;;;;;;4977628;29;20443;-85
2023/01/23 00:57:37;;;;;;;39.80;24.43;;;2.80;99.90;;;;;;4978284;28;20493;-85
2023/01/23 01:03:39;;;;;;;38.97;24.40;;;2.70;99.90;;;;;;4978225;28;20444;-85
2023/01/23 01:09:46;;;;;;;38.00;23.77;;;2.50;99.90;;;;;;4978913;28;20444;-85
2023/01/23 01:13:03;;;;;;;39.13;23.10;;;2.50;99.90;;;;;;4978810;29;20456;-85
2023/01/23 01:15:54;;;;;;;42.10;23.90;;;2.50;99.90;;;;;;4977476;29;20511;-84
2023/01/23 01:25:04;;;;;;;42.77;22.73;;;2.70;99.90;;;;;;4975006;29;20460;-85
2023/01/23 01:28:18;;;;;;;36.57;22.23;;;2.80;99.90;;;;;;4979272;28;20440;-84
2023/01/23 01:31:40;;;;;;;42.70;22.93;;;2.90;99.90;;;;;;4978877;28;20463;-85
2023/01/23 01:38:04;;;;;;;40.50;22.07;;;2.90;99.90;;;;;;4978196;29;20444;-84
2023/01/23 01:41:32;;;;;;;38.50;22.03;;;2.90;99.90;;;;;;4978559;29;20491;-84
2023/01/23 01:44:13;;;;;;;36.40;22.50;;;2.50;99.90;;;;;;4978003;28;20451;-84
2023/01/23 01:46:47;;;;;;;36.77;21.73;;;2.30;99.90;;;;;;4979823;28;20443;-85
2023/01/23 01:49:33;;;;;;;39.80;21.83;;;2.30;99.90;;;;;;4980657;29;20448;-85
2023/01/23 01:58:06;;;;;;;40.40;22.83;;;2.40;99.90;;;;;;4981600;29;20468;-85
2023/01/23 02:00:52;;;;;;;37.07;23.13;;;2.50;99.90;;;;;;4981855;28;20456;-85
2023/01/23 02:03:38;;;;;;;41.13;22.60;;;2.60;99.90;;;;;;4981591;28;20467;-84
2023/01/23 02:09:33;;;;;;;38.77;22.90;;;3.00;99.90;;;;;;4982298;29;20472;-85
2023/01/23 02:23:18;;;;;;;39.37;22.70;;;3.20;99.90;;;;;;4982507;28;20432;-85
2023/01/23 02:45:32;;;;;;;32.47;21.40;;;2.70;99.90;;;;;;4980675;29;20428;-85
2023/01/23 02:52:02;;;;;;;32.40;20.83;;;2.80;99.90;;;;;;4982009;28;20424;-85
2023/01/23 02:54:57;;;;;;;35.40;21.23;;;3.00;99.90;;;;;;4979827;28;20448;-84
2023/01/23 03:04:02;;;;;;;37.10;21.37;;;2.70;99.90;;;;;;4982175;28;20452;-85
2023/01/23 03:06:46;;;;;;;34.60;20.10;;;2.60;99.90;;;;;;4980716;28;20468;-84
2023/01/23 03:09:22;;;;;;;36.80;21.47;;;2.50;99.90;;;;;;4979893;28;20456;-84
2023/01/23 03:15:41;;;;;;;35.70;20.90;;;2.50;99.90;;;;;;4981902;28;20476;-84
2023/01/23 03:25:22;;;;;;;30.10;20.20;;;2.50;99.90;;;;;;4982070;28;20491;-82
2023/01/23 03:33:42;;;;;;;32.77;20.47;;;2.30;99.90;;;;;;4976089;29;20476;-84
2023/01/23 03:36:22;;;;;;;33.47;22.07;;;2.30;99.90;;;;;;4980039;28;20522;-84
2023/01/23 03:42:08;;;;;;;33.90;22.10;;;2.40;99.90;;;;;;4980552;29;20464;-83
2023/01/23 03:54:47;;;;;;;32.67;20.30;;;2.90;99.90;;;;;;4976043;28;20443;-85
2023/01/23 04:00:28;;;;;;;32.67;20.97;;;3.10;99.90;;;;;;4965909;28;20439;-85
2023/01/23 04:03:26;;;;;;;37.57;21.40;;;2.90;99.90;;;;;;4980166;28;20491;-85
2023/01/23 04:06:27;;;;;;;30.30;19.80;;;2.70;99.90;;;;;;4980407;28;20439;-85
2023/01/23 04:09:32;;;;;;;37.33;21.87;;;2.80;99.90;;;;;;4979189;28;20467;-84
2023/01/23 04:16:08;;;;;;;37.23;20.53;;;2.70;99.90;;;;;;4980109;29;20440;-85
2023/01/23 04:19:01;;;;;;;43.97;31.40;;;2.70;99.90;;;;;;4977325;28;20457;-84
2023/01/23 04:21:42;;;;;;;36.60;24.83;;;2.60;99.90;;;;;;4952517;28;20205;-84
2023/01/23 04:24:24;;;;;;;36.43;21.47;;;2.40;99.90;;;;;;4978989;28;20459;-84
2023/01/23 04:27:06;;;;;;;37.63;22.47;;;2.40;99.90;;;;;;4977865;28;20499;-83
2023/01/23 04:29:48;;;;;;;38.43;22.07;;;2.40;99.90;;;;;;4978597;28;20451;-85
2023/01/23 04:33:13;;;;;;;39.30;22.07;;;2.50;99.90;;;;;;4977407;29;20459;-85
2023/01/23 04:36:00;;;;;;;35.50;22.27;;;2.50;99.90;;;;;;4978487;28;20475;-85
2023/01/23 04:41:37;;;;;;;34.90;21.67;;;2.70;99.90;;;;;;4979188;29;20459;-85
2023/01/23 04:44:22;;;;;;;41.70;28.63;;;2.70;99.90;;;;;;4978942;28;20428;-85
2023/01/23 04:50:15;;;;;;;41.27;23.30;;;2.70;99.90;;;;;;4979751;28;20421;-85
2023/01/23 04:52:49;;;;;;;38.57;22.17;;;2.70;99.90;;;;;;4978268;28;20466;-85
2023/01/23 04:59:01;;;;;;;40.40;24.03;;;2.60;99.90;;;;;;4981130;28;20503;-85
2023/01/23 05:02:28;;;;;;;36.50;22.83;;;2.70;99.90;;;;;;4980543;28;20440;-86
2023/01/23 05:05:48;;;;;;;37.10;22.70;;;2.70;99.90;;;;;;4980718;28;20471;-84
2023/01/23 05:08:36;;;;;;;35.87;22.10;;;2.90;99.90;;;;;;4979290;28;20452;-85
2023/01/23 05:11:17;;;;;;;43.95;30.35;;;2.90;99.90;;;;;;4977572;28;20448;-85
2023/01/23 05:14:08;;;;;;;38.70;24.93;;;3.00;99.90;;;;;;4966335;29;20234;-85
2023/01/23 05:17:06;;;;;;;37.87;23.60;;;3.20;99.90;;;;;;4978579;28;20220;-85
2023/01/23 05:23:38;;;;;;;41.77;22.60;;;3.10;99.90;;;;;;4958350;29;20451;-85
2023/01/23 05:26:24;;;;;;;39.97;22.43;;;2.80;99.90;;;;;;4958022;28;20432;-85
2023/01/23 05:32:15;;;;;;;42.73;23.27;;;2.70;99.90;;;;;;4937335;29;20457;-85
2023/01/23 05:34:48;;;;;;;45.27;24.47;;;2.70;99.90;;;;;;4920956;29;20480;-84
2023/01/23 05:37:34;;;;;;;43.07;23.53;;;2.60;99.90;;;;;;4936571;29;20485;-85
2023/01/23 05:40:12;;;;;;;40.97;23.63;;;2.70;99.90;;;;;;4937926;29;21016;-83
2023/01/23 05:43:18;;;;;;;38.00;23.27;;;2.70;99.90;;;;;;4976761;28;20452;-85
2023/01/23 05:49:44;;;;;;;43.83;24.50;;;2.90;99.90;;;;;;4963072;29;20428;-85
2023/01/23 05:53:07;;;;;;;50.63;25.83;;;3.10;99.90;;;;;;4971248;28;20436;-85
2023/01/23 06:17:12;;;;;;;41.77;25.57;;;3.00;99.90;;;;;;4957786;28;20480;-84
2023/01/23 06:26:57;;;;;;;40.17;23.60;;;3.10;99.90;;;;;;5254804;23;20499;-83
2023/01/23 06:32:36;;;;;;;49.60;25.53;;;3.10;99.90;;;;;;5003856;28;20450;-84
2023/01/23 06:35:15;;;;;;;39.10;24.10;;;3.00;99.90;;;;;;4999437;28;20482;-84
2023/01/23 06:43:43;;;;;;;49.60;25.37;;;3.40;99.90;;;;;;4976742;28;20448;-86
2023/01/23 06:49:20;;;;;;;50.43;27.50;;;3.50;99.90;;;;;;4983445;28;20435;-83
2023/01/23 06:51:57;;;;;;;50.47;26.37;;;3.30;99.90;;;;;;4975783;28;20439;-86
2023/01/23 06:54:32;;;;;;;50.37;26.47;;;3.40;99.90;;;;;;4990559;28;20463;-85
2023/01/23 07:05:05;;;;;;;54.90;29.30;;;3.30;99.90;;;;;;4979236;28;20280;-86
2023/01/23 07:07:35;;;;;;;51.23;28.93;;;3.10;99.90;;;;;;4983019;28;20241;-85
2023/01/23 07:10:05;;;;;;;52.93;27.87;;;2.90;99.90;;;;;;4979277;28;20456;-84
2023/01/23 07:12:37;;;;;;;52.83;28.33;;;2.90;99.90;;;;;;4985514;28;20527;-84
2023/01/23 07:15:12;;;;;;;47.40;26.67;;;2.90;99.90;;;;;;5009019;23;20503;-85
2023/01/23 07:18:11;;;;;;;49.80;27.93;;;3.10;99.90;;;;;;4999851;28;20236;-87
2023/01/23 07:21:29;;;;;;;52.43;26.40;;;3.00;99.90;;;;;;5034718;28;20483;-87
2023/01/23 07:24:45;;;;;;;53.47;27.27;;;3.00;99.90;;;;;;5020927;28;20460;-86
2023/01/23 07:30:55;;;;;;;53.20;28.37;;;3.00;99.90;;;;;;5004827;28;20451;-85
2023/01/23 07:33:57;;;;;;;49.40;26.50;;;3.20;99.90;;;;;;4999476;28;20443;-86
2023/01/23 07:44:01;;;;;;;51.00;26.63;;;3.30;99.90;;;;;;4981391;28;20472;-86
2023/01/23 08:00:10;;;;;;;48.10;26.07;;;3.50;99.90;;;;;;4987160;28;20217;-91
2023/01/23 08:05:33;;;;;;;42.73;25.97;;;3.80;99.90;;;;;;4965185;28;20210;-92
2023/01/23 08:08:00;;;;;;;46.70;26.83;;;3.70;99.90;;;;;;4971662;28;20624;-95
2023/01/23 08:10:29;;;;;;;51.57;27.63;;;3.70;99.90;;;;;;4968736;28;20464;-93
2023/01/23 08:12:59;;;;;;;46.77;26.73;;;3.50;99.90;;;;;;4958284;28;20479;-92
2023/01/23 08:15:27;;;;;;;48.70;27.57;;;3.50;99.90;;;;;;4968209;28;20286;-93
2023/01/23 08:17:57;;;;;;;54.60;27.87;;;3.30;99.90;;;;;;4960380;28;20234;-93
2023/01/23 08:23:24;;;;;;;46.87;26.33;;;3.20;99.90;;;;;;4965962;28;20499;-92
2023/01/23 08:25:53;;;;;;;51.57;27.50;;;3.10;99.90;;;;;;4963370;28;20456;-93
2023/01/23 08:28:22;;;;;;;48.20;27.73;;;3.30;99.90;;;;;;4962085;28;20265;-95
2023/01/23 08:30:50;;;;;;;54.03;30.33;;;3.30;99.90;;;;;;4961704;28;20829;-93
2023/01/23 08:33:29;;;;;;;49.07;28.23;;;3.60;99.90;;;;;;4962223;28;20250;-92
2023/01/23 08:35:58;;;;;;;51.30;29.37;;;3.60;99.90;;;;;;4961945;28;20201;-94
2023/01/23 08:38:26;;;;;;;57.30;28.90;;;3.30;99.90;;;;;;4962643;28;20236;-93
2023/01/23 08:40:55;;;;;;;57.20;29.20;;;3.60;99.90;;;;;;4960922;28;20273;-94
2023/01/23 08:43:25;;;;;;;57.83;28.93;;;3.50;99.90;;;;;;4960668;28;20214;-92
2023/01/23 08:45:56;;;;;;;50.73;28.23;;;3.70;99.90;;;;;;4961489;28;20202;-93
2023/01/23 08:48:29;;;;;;;54.70;29.73;;;3.80;99.90;;;;;;4962014;28;20210;-94
2023/01/23 08:51:02;;;;;;;48.23;28.30;;;3.50;99.90;;;;;;4961934;28;20202;-95
2023/01/23 08:53:30;;;;;;;52.63;26.83;;;3.50;99.90;;;;;;4961070;28;20774;-92
2023/01/23 08:56:00;;;;;;;52.40;28.67;;;3.70;99.90;;;;;;4960778;28;20309;-94
2023/01/23 08:58:37;;;;;;;49.50;28.73;;;3.80;99.90;;;;;;4962554;28;20580;-93
2023/01/23 09:01:18;;;;;;;55.70;33.83;;;3.70;99.90;;;;;;4966107;28;20437;-93
2023/01/23 09:03:46;;;;;;;49.60;28.80;;;3.70;99.90;;;;;;4962106;28;20478;-91
2023/01/23 09:06:16;;;;;;;45.47;28.03;;;3.70;99.90;;;;;;4962157;28;20202;-92
2023/01/23 09:08:49;;;;;;;48.93;27.20;;;3.70;99.90;;;;;;4962563;28;20276;-93
2023/01/23 09:11:31;;;;;;;46.97;26.83;;;3.90;99.90;;;;;;4962195;28;20603;-91
2023/01/23 09:14:07;;;;;;;50.17;25.50;;;3.90;99.90;;;;;;4963600;28;20248;-93
2023/01/23 09:22:06;;;;;;;53.80;26.23;;;3.80;99.90;;;;;;4972751;28;20724;-91
2023/01/23 09:24:46;;;;;;;53.00;26.33;;;3.60;99.90;;;;;;4973086;28;20234;-93
2023/01/23 09:38:25;;;;;;;51.33;29.03;;;3.50;99.90;;;;;;4976287;28;20225;-92
2023/01/23 09:41:00;;;;;;;51.37;28.57;;;3.60;99.90;;;;;;4973949;28;20205;-92
2023/01/23 09:43:39;;;;;;;51.37;26.87;;;3.50;99.90;;;;;;4964109;28;20233;-91
2023/01/23 09:46:27;;;;;;;48.67;26.37;;;3.50;99.90;;;;;;4978651;28;20202;-95
2023/01/23 09:49:02;;;;;;;53.40;28.40;;;3.70;99.90;;;;;;4974547;28;20206;-91
2023/01/23 09:51:51;;;;;;;48.17;28.13;;;3.80;99.90;;;;;;4967838;28;20210;-93
2023/01/23 09:54:32;;;;;;;49.60;28.23;;;3.80;99.90;;;;;;4975865;28;20222;-93
2023/01/23 09:57:03;;;;;;;60.40;28.00;;;3.80;99.90;;;;;;4974695;28;20221;-92
2023/01/23 09:59:37;;;;;;;62.73;28.60;;;3.80;99.90;;;;;;4978549;28;20218;-93
2023/01/23 10:02:15;;;;;;;62.63;31.13;;;4.10;99.90;;;;;;4975778;28;20446;-92
2023/01/23 10:04:51;;;;;;;59.50;27.83;;;4.20;99.90;;;;;;4972871;28;20226;-94
2023/01/23 10:07:45;;;;;;;45.60;26.30;;;4.10;99.90;;;;;;4973152;28;20206;-91
2023/01/23 10:10:41;;;;;;;41.70;26.00;;;4.10;99.90;;;;;;4980386;28;20190;-92
2023/01/23 10:13:21;;;;;;;38.83;24.63;;;4.10;99.90;;;;;;4982322;28;20229;-92
2023/01/23 10:16:14;;;;;;;42.83;23.47;;;4.20;99.90;;;;;;4980748;28;20202;-93
2023/01/23 10:22:10;;;;;;;37.23;22.87;;;4.20;99.90;;;;;;4975946;28;20260;-93
2023/01/23 10:31:10;;;;;;;43.13;29.42;;;4.30;99.90;;;;;;4979326;28;20424;-93
2023/01/23 10:39:45;;;;;;;43.23;22.57;;;4.30;99.90;;;;;;4988719;28;20216;-93
2023/01/23 10:42:13;;;;;;;37.93;22.13;;;4.70;99.90;;;;;;4988741;28;20628;-94
2023/01/23 10:44:41;;;;;;;36.92;28.63;;;4.30;99.90;;;;;;4973123;28;20433;-89
2023/01/23 10:47:17;;;;;;;33.30;22.80;;;4.20;99.90;;;;;;4962927;28;20701;-93
2023/01/23 10:49:46;;;;;;;33.40;21.03;;;4.10;99.90;;;;;;4957769;28;20209;-92
2023/01/23 10:55:45;;;;;;;31.47;20.87;;;4.30;99.90;;;;;;5005700;23;20249;-93
2023/01/23 11:04:47;;;;;;;36.03;23.73;;;4.90;99.90;;;;;;4971286;23;20268;-93
2023/01/23 11:07:22;;;;;;;34.13;22.93;;;5.00;99.90;;;;;;4976252;29;20206;-93
2023/01/23 11:09:55;;;;;;;34.17;22.73;;;5.00;99.90;;;;;;4968633;28;20230;-93
2023/01/23 11:12:26;;;;;;;36.35;25.33;;;4.80;99.90;;;;;;4969405;28;20872;-92
2023/01/23 11:15:13;;;;;;;38.40;23.47;;;4.70;99.90;;;;;;4943375;29;20216;-94
2023/01/23 11:17:46;;;;;;;35.57;23.47;;;4.80;99.90;;;;;;4923052;29;20223;-93
2023/01/23 11:21:08;;;;;;;36.07;23.57;;;4.80;99.90;;;;;;4923141;29;20195;-93
2023/01/23 11:26:40;;;;;;;35.30;23.20;;;5.00;99.90;;;;;;4939869;29;20206;-93
2023/01/23 11:32:38;;;;;;;41.20;24.73;;;4.70;99.90;;;;;;4943703;29;20346;-92
2023/01/23 11:35:17;;;;;;;38.63;24.67;;;4.60;99.90;;;;;;4946510;29;20283;-94
2023/01/23 11:37:46;;;;;;;39.67;25.70;;;4.60;99.90;;;;;;4917723;29;20243;-94
2023/01/23 11:40:20;;;;;;;42.50;26.27;;;4.60;99.90;;;;;;4934635;29;20243;-94
2023/01/23 11:43:16;;;;;;;42.07;24.57;;;4.90;99.90;;;;;;4945472;29;20254;-93
2023/01/23 11:46:15;;;;;;;40.57;24.57;;;4.80;99.90;;;;;;4933590;29;20247;-93
2023/01/23 11:49:05;;;;;;;36.90;24.40;;;4.70;99.90;;;;;;4938936;29;20214;-94
2023/01/23 11:51:38;;;;;;;38.77;24.47;;;4.80;99.90;;;;;;4920201;29;20212;-95
2023/01/23 12:00:31;;;;;;;40.27;24.30;;;4.80;99.90;;;;;;4933475;29;20218;-96
2023/01/23 12:07:01;;;;;;;37.73;24.43;;;4.80;99.90;;;;;;4907657;29;20578;-93
2023/01/23 12:25:14;;;;;;;35.53;23.00;;;4.80;99.90;;;;;;4929916;29;20266;-94
2023/01/23 13:26:41;;;;;;;37.00;24.67;;;4.90;99.90;;;;;;904662;23;20495;-81
2023/01/23 13:33:10;;;;;;;36.97;23.80;;;5.20;99.90;;;;;;4999549;28;20224;-87
2023/01/23 15:16:47;;;;;;;49.47;27.57;;;4.60;99.90;;;;;;4958825;28;20218;-80
2023/01/23 15:22:29;;;;;;;45.97;26.53;;;4.90;99.90;;;;;;4970400;28;20250;-83
2023/01/23 15:25:08;;;;;;;42.53;26.17;;;5.00;99.90;;;;;;4981142;28;20190;-82
2023/01/23 15:27:43;;;;;;;44.27;26.43;;;5.10;99.90;;;;;;4979669;28;20202;-82
2023/01/23 15:30:40;;;;;;;41.00;24.90;;;5.10;99.90;;;;;;4975309;28;20205;-81
2023/01/23 15:33:46;;;;;;;43.47;25.17;;;4.70;99.90;;;;;;4949820;28;20266;-81
2023/01/23 15:43:07;;;;;;;36.90;21.97;;;4.60;99.90;;;;;;4973450;28;20237;-81
2023/01/23 15:45:34;;;;;;;35.30;23.07;;;4.50;99.90;;;;;;4967086;28;20201;-81
2023/01/23 15:48:01;;;;;;;34.57;23.00;;;4.40;99.90;;;;;;4962274;28;20244;-80
2023/01/23 15:50:30;;;;;;;34.47;22.03;;;4.30;99.90;;;;;;4963830;28;20237;-79
2023/01/23 15:52:57;;;;;;;37.83;24.23;;;4.30;99.90;;;;;;4959886;29;20221;-80
2023/01/23 15:55:28;;;;;;;38.67;24.93;;;4.40;99.90;;;;;;4960930;28;20205;-80
2023/01/23 15:57:57;;;;;;;38.90;24.23;;;4.40;99.90;;;;;;4960193;28;20202;-79
2023/01/23 16:00:25;;;;;;;36.30;23.40;;;4.40;99.90;;;;;;4962707;28;20240;-80
2023/01/23 16:03:00;;;;;;;38.17;24.07;;;4.40;99.90;;;;;;4960991;28;20209;-80
2023/01/23 16:08:59;;;;;;;35.00;22.93;;;4.60;99.90;;;;;;5099184;23;20237;-85
2023/01/23 16:20:40;;;;;;;33.97;21.27;;;4.60;99.90;;;;;;4980998;23;20296;-94
2023/01/23 16:23:13;;;;;;;29.50;19.57;;;4.70;99.90;;;;;;4992898;23;20267;-79
2023/01/23 16:25:42;;;;;;;30.20;20.73;;;4.40;99.90;;;;;;4968020;29;20202;-79
2023/01/23 16:28:13;;;;;;;30.63;21.03;;;4.40;99.90;;;;;;4967384;28;20205;-79
2023/01/23 16:30:41;;;;;;;31.87;20.13;;;4.50;99.90;;;;;;4966248;28;20210;-80
2023/01/23 16:33:08;;;;;;;31.13;20.67;;;4.50;99.90;;;;;;4966355;29;20242;-79
2023/01/23 16:35:39;;;;;;;30.47;20.77;;;4.50;99.90;;;;;;4961387;28;20213;-80
2023/01/23 16:38:06;;;;;;;29.17;20.20;;;4.70;99.90;;;;;;4963196;28;20304;-79
2023/01/23 16:40:33;;;;;;;30.47;21.63;;;4.60;99.90;;;;;;4965746;29;20213;-79
2023/01/23 16:43:01;;;;;;;30.67;21.67;;;4.70;99.90;;;;;;4964366;28;20225;-80
2023/01/23 16:45:30;;;;;;;33.37;22.47;;;4.70;99.90;;;;;;4963842;29;20205;-79
2023/01/23 16:47:58;;;;;;;29.63;19.77;;;4.70;99.90;;;;;;4966111;29;20199;-80
2023/01/23 16:50:32;;;;;;;28.10;19.90;;;4.60;99.90;;;;;;4964996;29;20205;-80
2023/01/23 16:53:25;;;;;;;25.63;19.73;;;4.50;99.90;;;;;;4970995;28;20206;-80
2023/01/23 16:55:54;;;;;;;27.80;18.43;;;4.50;99.90;;;;;;4970899;28;20182;-80
2023/01/23 16:58:44;;;;;;;26.43;18.57;;;4.20;99.90;;;;;;4967321;29;20218;-80
2023/01/23 17:01:25;;;;;;;31.00;18.97;;;4.30;99.90;;;;;;4969230;29;20194;-80
2023/01/23 17:03:56;;;;;;;26.60;18.73;;;4.40;99.90;;;;;;4968806;29;20666;-80
2023/01/23 17:06:26;;;;;;;26.40;19.17;;;4.40;99.90;;;;;;4968830;28;20216;-81
2023/01/23 17:09:14;;;;;;;24.03;18.07;;;4.70;99.90;;;;;;4962951;29;20278;-80
2023/01/23 17:12:10;;;;;;;26.38;23.52;;;4.70;99.90;;;;;;4977243;29;20921;-80
2023/01/23 17:14:47;;;;;;;22.00;17.47;;;4.80;99.90;;;;;;4979264;28;20200;-81
2023/01/23 17:17:46;;;;;;;22.43;17.93;;;4.70;99.90;;;;;;4977028;28;20233;-80
2023/01/23 17:20:29;;;;;;;20.30;15.50;;;4.60;99.90;;;;;;4970353;29;20238;-81
2023/01/23 17:30:33;;;;;;;20.10;14.37;;;4.40;99.90;;;;;;4962415;28;20185;-83
2023/01/23 17:33:12;;;;;;;19.43;14.67;;;4.20;99.90;;;;;;4952578;28;20217;-81
2023/01/23 17:39:16;;;;;;;20.17;14.17;;;4.00;99.90;;;;;;4996383;23;20221;-81
2023/01/23 17:42:22;;;;;;;18.87;15.17;;;4.20;99.90;;;;;;4979679;28;20462;-81
2023/01/23 17:45:47;;;;;;;20.63;14.60;;;4.20;99.90;;;;;;4940337;28;20187;-80
2023/01/23 17:51:53;;;;;;;21.93;15.73;;;4.00;99.90;;;;;;4956274;28;20195;-82
2023/01/23 18:09:10;;;;;;;22.77;17.23;;;4.00;99.90;;;;;;4985908;28;20272;-79
2023/01/23 18:41:33;;;;;;;28.93;19.93;;;4.00;99.90;;;;;;4982398;28;20202;-79
2023/01/23 18:45:22;;;;;;;31.80;23.07;;;4.00;99.90;;;;;;4978640;28;20198;-80
2023/01/23 18:55:28;;;;;;;23.33;17.13;;;3.80;99.90;;;;;;4942862;28;20200;-82
2023/01/23 19:01:50;;;;;;;22.27;17.13;;;4.00;99.90;;;;;;5115599;27;2249882;-81
2023/01/23 19:04:18;;;;;;;30.67;17.63;;;3.80;99.90;;;;;;5181765;27;20224;-81
2023/01/23 19:06:49;;;;;;;25.33;18.90;;;3.70;99.90;;;;;;5161548;27;20238;-80
2023/01/23 19:09:26;;;;;;;23.70;17.77;;;3.70;99.90;;;;;;5165978;27;20443;-80
2023/01/23 19:12:02;;;;;;;23.00;17.27;;;3.80;99.90;;;;;;5159589;27;20451;-81
2023/01/23 19:15:02;;;;;;;24.37;18.10;;;3.80;99.90;;;;;;5162177;27;20231;-81
2023/01/23 19:17:48;;;;;;;27.23;19.23;;;3.80;99.90;;;;;;5151253;27;20445;-81
2023/01/23 19:20:35;;;;;;;24.90;18.70;;;3.60;99.90;;;;;;5176701;27;20218;-81
2023/01/23 19:23:11;;;;;;;25.23;19.63;;;3.60;99.90;;;;;;5170366;27;20449;-80
2023/01/23 19:25:46;;;;;;;25.27;19.07;;;3.60;99.90;;;;;;5178271;27;20484;-81
2023/01/23 19:28:19;;;;;;;25.20;19.30;;;3.50;99.90;;;;;;5192735;27;20439;-81
2023/01/23 19:30:50;;;;;;;27.70;20.43;;;3.50;99.90;;;;;;5176042;27;20456;-80
2023/01/23 19:33:28;;;;;;;28.33;21.00;;;3.60;99.90;;;;;;5168736;27;20438;-81
2023/01/23 19:35:56;;;;;;;27.87;20.10;;;3.60;99.90;;;;;;5174536;27;20449;-81
2023/01/23 19:38:28;;;;;;;29.67;21.53;;;3.60;99.90;;;;;;5161390;27;20965;-79
2023/01/23 19:40:56;;;;;;;29.93;22.20;;;3.60;99.90;;;;;;5160539;27;20514;-80
2023/01/23 19:43:30;;;;;;;27.67;20.83;;;3.60;99.90;;;;;;5164420;27;20439;-81
2023/01/23 19:46:08;;;;;;;28.03;21.33;;;3.70;99.90;;;;;;5146379;27;21036;-80
2023/01/23 19:48:39;;;;;;;26.77;20.57;;;3.70;99.90;;;;;;5154070;27;20444;-81
2023/01/23 19:51:18;;;;;;;27.63;21.07;;;3.80;99.90;;;;;;5166587;27;20279;-82
2023/01/23 19:53:49;;;;;;;25.70;20.77;;;3.80;99.90;;;;;;5165480;27;20234;-82
2023/01/23 19:59:41;;;;;;;25.60;19.80;;;3.80;99.90;;;;;;5184041;27;20242;-82
2023/01/23 20:12:31;;;;;;;27.27;19.53;;;3.90;99.90;;;;;;5188195;27;20174;-81
2023/01/23 20:15:30;;;;;;;25.63;19.70;;;3.80;99.90;;;;;;5183969;27;20163;-80
2023/01/23 20:18:31;;;;;;;25.90;19.63;;;3.90;99.90;;;;;;5183770;27;20183;-80
2023/01/23 20:21:41;;;;;;;26.93;19.77;;;4.00;99.90;;;;;;5183729;27;20203;-80
2023/01/23 20:24:27;;;;;;;27.90;25.00;;;3.70;99.90;;;;;;5180199;27;20429;-79
2023/01/23 20:35:44;;;;;;;28.00;20.30;;;3.80;99.90;;;;;;5163076;27;20430;-80
2023/01/23 21:08:47;;;;;;;26.20;19.30;;;4.00;99.90;;;;;;5120281;28;20176;-79
2023/01/23 21:11:33;;;;;;;27.43;20.80;;;3.90;99.90;;;;;;5103205;28;20196;-80
2023/01/23 21:14:18;;;;;;;26.73;20.57;;;4.00;99.90;;;;;;5116116;28;20193;-82
2023/01/23 21:16:50;;;;;;;27.50;19.13;;;4.00;99.90;;;;;;5144982;27;20248;-81
2023/01/23 21:19:20;;;;;;;23.37;19.23;;;3.90;99.90;;;;;;5159860;27;20435;-82
2023/01/23 21:38:08;;;;;;;26.07;21.60;;;3.70;99.90;;;;;;5161543;27;20221;-84
2023/01/23 21:40:37;;;;;;;25.67;20.60;;;3.60;99.90;;;;;;5161350;27;20200;-83
2023/01/23 21:43:05;;;;;;;25.30;20.00;;;3.60;99.90;;;;;;5161217;27;20188;-81
2023/01/23 21:45:38;;;;;;;26.53;19.73;;;3.80;99.90;;;;;;5160021;27;20208;-85
2023/01/23 21:48:18;;;;;;;25.30;19.20;;;4.00;99.90;;;;;;5177336;27;20171;-82
2023/01/23 21:50:47;;;;;;;23.77;19.47;;;3.90;99.90;;;;;;5179738;27;20254;-81
2023/01/23 21:53:17;;;;;;;24.73;19.30;;;3.70;99.90;;;;;;5180540;27;20178;-82
2023/01/23 21:55:57;;;;;;;24.30;19.57;;;3.60;99.90;;;;;;5150376;27;20184;-84
2023/01/23 21:58:25;;;;;;;25.17;20.43;;;3.80;99.90;;;;;;5149479;27;20211;-82
2023/01/23 22:03:44;;;;;;;27.43;19.93;;;3.80;99.90;;;;;;5159007;27;20661;-81
2023/01/23 22:07:04;;;;;;;27.23;20.60;;;3.80;99.90;;;;;;5137998;28;20209;-80
2023/01/23 22:10:30;;;;;;;26.90;20.53;;;3.70;99.90;;;;;;5139242;28;20429;-81
2023/01/23 22:13:28;;;;;;;25.10;19.43;;;3.90;99.90;;;;;;5137825;28;20523;-81
2023/01/23 22:19:35;;;;;;;25.23;19.53;;;3.70;99.90;;;;;;5156031;27;20427;-81
2023/01/23 22:22:22;;;;;;;26.10;20.77;;;3.70;99.90;;;;;;5160023;27;20225;-81
2023/01/23 22:24:54;;;;;;;27.10;21.30;;;3.90;99.90;;;;;;5160454;27;20461;-84
2023/01/23 22:27:40;;;;;;;27.80;21.37;;;3.90;99.90;;;;;;5159799;27;20278;-85
2023/01/23 22:30:21;;;;;;;25.93;19.83;;;3.70;99.90;;;;;;5155513;27;20184;-82
2023/01/23 22:32:54;;;;;;;24.10;18.47;;;3.70;99.90;;;;;;5139343;28;20180;-85
2023/01/23 22:35:37;;;;;;;26.93;20.80;;;3.60;99.90;;;;;;5153119;27;20440;-81
2023/01/23 22:38:24;;;;;;;26.43;19.93;;;3.50;99.90;;;;;;5180866;27;20211;-85
2023/01/23 22:41:16;;;;;;;25.33;20.00;;;3.50;99.90;;;;;;5180694;27;20456;-82
2023/01/23 22:43:52;;;;;;;26.63;20.27;;;3.50;99.90;;;;;;5180914;27;20459;-79
2023/01/23 22:47:00;;;;;;;26.97;21.37;;;3.60;99.90;;;;;;5166437;27;20443;-81
2023/01/23 22:49:49;;;;;;;27.70;21.20;;;3.50;99.90;;;;;;5159909;27;20263;-81
2023/01/23 22:52:16;;;;;;;29.57;22.30;;;3.70;99.90;;;;;;5159768;27;20490;-82
2023/01/23 22:54:43;;;;;;;28.03;21.47;;;3.50;99.90;;;;;;5147996;27;20451;-80
2023/01/23 22:57:21;;;;;;;28.47;20.93;;;3.50;99.90;;;;;;5144551;27;20860;-80
2023/01/23 22:59:54;;;;;;;26.73;21.80;;;3.60;99.90;;;;;;5145373;28;20458;-80
2023/01/23 23:02:22;;;;;;;29.60;22.37;;;3.60;99.90;;;;;;5144078;28;20444;-80
2023/01/23 23:05:00;;;;;;;29.27;21.47;;;3.50;99.90;;;;;;5144487;28;20926;-80
2023/01/23 23:07:27;;;;;;;29.63;22.17;;;3.60;99.90;;;;;;5144608;28;20443;-80
2023/01/23 23:09:56;;;;;;;27.80;21.43;;;3.70;99.90;;;;;;5145266;28;20247;-80
2023/01/23 23:12:27;;;;;;;33.67;30.27;;;3.70;99.90;;;;;;5144144;28;20437;-80
2023/01/23 23:15:04;;;;;;;27.30;23.23;;;3.90;99.90;;;;;;5144435;28;20635;-80
2023/01/23 23:17:31;;;;;;;27.87;22.60;;;3.80;99.90;;;;;;5145166;28;20207;-81
2023/01/23 23:20:01;;;;;;;26.70;21.40;;;4.00;99.90;;;;;;5145115;28;20200;-81
2023/01/23 23:22:30;;;;;;;28.80;22.30;;;4.20;99.90;;;;;;5145817;28;20286;-80
2023/01/23 23:25:01;;;;;;;29.20;23.00;;;4.20;99.90;;;;;;5156202;27;20267;-80
2023/01/23 23:27:32;;;;;;;30.20;21.97;;;4.20;99.90;;;;;;5159286;27;20214;-79
2023/01/23 23:30:17;;;;;;;28.40;22.40;;;4.10;99.90;;;;;;5159712;27;20192;-81
2023/01/23 23:33:01;;;;;;;31.93;22.17;;;4.10;99.90;;;;;;5157952;27;20210;-80
2023/01/23 23:35:36;;;;;;;32.57;23.73;;;4.10;99.90;;;;;;5138070;28;20204;-80
2023/01/23 23:38:13;;;;;;;38.77;32.00;;;3.90;99.90;;;;;;5156677;28;20467;-81
2023/01/23 23:40:45;;;;;;;30.00;24.23;;;4.00;99.90;;;;;;5144390;28;20291;-80
2023/01/23 23:43:17;;;;;;;29.83;23.03;;;3.90;99.90;;;;;;5144051;28;20196;-80
2023/01/23 23:46:01;;;;;;;28.57;21.63;;;3.90;99.90;;;;;;5143846;27;20588;-79
2023/01/23 23:48:30;;;;;;;28.33;21.13;;;3.90;99.90;;;;;;5148427;27;20196;-80
2023/01/23 23:51:01;;;;;;;29.13;21.57;;;4.10;99.90;;;;;;5148753;27;20275;-81
2023/01/23 23:56:43;;;;;;;32.03;23.17;;;3.80;99.90;;;;;;5161610;27;20190;-80
2023/01/23 23:59:23;;;;;;;29.27;21.93;;;3.80;99.90;;;;;;5160049;27;20400;-81
